sensor_id;sensor_type;location;lat;lon;timestamp;P1;durP1;ratioP1;P2;durP2;ratioP2
840;SDS011;406;48.566;13.450;2022-09-09T00:00:24;4.40;;;2.30;;
840;SDS011;406;48.566;13.450;2022-09-09T00:05:50;6.97;;;3.03;;
840;SDS011;406;48.566;13.450;2022-09-09T00:08:32;141.63;;;13.07;;
840;SDS011;406;48.566;13.450;2022-09-09T00:11:07;110.13;;;10.50;;
840;SDS011;406;48.566;13.450;2022-09-09T00:13:37;9.50;;;3.77;;
840;SDS011;406;48.566;13.450;2022-09-09T00:16:15;199.63;;;16.50;;
840;SDS011;406;48.566;13.450;2022-09-09T00:21:37;311.30;;;25.13;;
840;SDS011;406;48.566;13.450;2022-09-09T00:24:09;74.50;;;7.30;;
840;SDS011;406;48.566;13.450;2022-09-09T00:26:42;164.27;;;14.80;;
840;SDS011;406;48.566;13.450;2022-09-09T00:29:33;13.53;;;3.37;;
840;SDS011;406;48.566;13.450;2022-09-09T00:32:11;176.40;;;15.30;;
840;SDS011;406;48.566;13.450;2022-09-09T00:34:42;266.13;;;25.80;;
840;SDS011;406;48.566;13.450;2022-09-09T00:37:12;212.17;;;18.63;;
840;SDS011;406;48.566;13.450;2022-09-09T00:39:39;68.83;;;8.23;;
840;SDS011;406;48.566;13.450;2022-09-09T00:44:39;34.37;;;5.90;;
840;SDS011;406;48.566;13.450;2022-09-09T00:50:17;113.73;;;10.53;;
840;SDS011;406;48.566;13.450;2022-09-09T00:56:13;24.70;;;5.53;;
840;SDS011;406;48.566;13.450;2022-09-09T00:58:42;9.90;;;3.80;;
840;SDS011;406;48.566;13.450;2022-09-09T01:01:09;13.17;;;3.87;;
840;SDS011;406;48.566;13.450;2022-09-09T01:03:38;27.27;;;4.00;;
840;SDS011;406;48.566;13.450;2022-09-09T01:14:48;20.03;;;5.33;;
840;SDS011;406;48.566;13.450;2022-09-09T01:17:21;22.63;;;4.63;;
840;SDS011;406;48.566;13.450;2022-09-09T01:22:35;10.13;;;3.53;;
840;SDS011;406;48.566;13.450;2022-09-09T01:25:56;21.23;;;4.70;;
840;SDS011;406;48.566;13.450;2022-09-09T01:28:30;45.03;;;5.30;;
840;SDS011;406;48.566;13.450;2022-09-09T01:31:04;62.60;;;7.50;;
840;SDS011;406;48.566;13.450;2022-09-09T01:33:38;35.43;;;6.80;;
840;SDS011;406;48.566;13.450;2022-09-09T01:36:12;36.10;;;6.37;;
840;SDS011;406;48.566;13.450;2022-09-09T01:38:46;29.30;;;6.87;;
840;SDS011;406;48.566;13.450;2022-09-09T01:41:11;52.13;;;7.43;;
840;SDS011;406;48.566;13.450;2022-09-09T01:43:44;62.37;;;8.63;;
840;SDS011;406;48.566;13.450;2022-09-09T01:46:10;44.40;;;7.03;;
840;SDS011;406;48.566;13.450;2022-09-09T01:48:36;39.40;;;8.37;;
840;SDS011;406;48.566;13.450;2022-09-09T01:51:07;36.90;;;7.13;;
840;SDS011;406;48.566;13.450;2022-09-09T01:53:33;39.43;;;10.40;;
840;SDS011;406;48.566;13.450;2022-09-09T01:56:04;73.97;;;12.63;;
840;SDS011;406;48.566;13.450;2022-09-09T02:04:49;60.00;;;11.10;;
840;SDS011;406;48.566;13.450;2022-09-09T02:10:25;78.00;;;9.50;;
840;SDS011;406;48.566;13.450;2022-09-09T02:13:09;32.60;;;9.50;;
840;SDS011;406;48.566;13.450;2022-09-09T02:16:21;37.80;;;9.77;;
840;SDS011;406;48.566;13.450;2022-09-09T02:18:28;23.83;;;6.50;;
840;SDS011;406;48.566;13.450;2022-09-09T02:20:57;26.70;;;8.07;;
840;SDS011;406;48.566;13.450;2022-09-09T02:23:23;23.83;;;8.63;;
840;SDS011;406;48.566;13.450;2022-09-09T02:25:52;23.70;;;7.40;;
840;SDS011;406;48.566;13.450;2022-09-09T02:28:22;50.60;;;8.40;;
840;SDS011;406;48.566;13.450;2022-09-09T02:30:50;15.13;;;7.17;;
840;SDS011;406;48.566;13.450;2022-09-09T02:33:24;21.83;;;8.30;;
840;SDS011;406;48.566;13.450;2022-09-09T02:35:51;24.87;;;10.40;;
840;SDS011;406;48.566;13.450;2022-09-09T02:38:20;25.73;;;11.00;;
840;SDS011;406;48.566;13.450;2022-09-09T02:41:01;54.57;;;13.67;;
840;SDS011;406;48.566;13.450;2022-09-09T02:43:31;27.70;;;13.93;;
840;SDS011;406;48.566;13.450;2022-09-09T02:46:03;37.50;;;13.83;;
840;SDS011;406;48.566;13.450;2022-09-09T02:48:52;50.00;;;14.50;;
840;SDS011;406;48.566;13.450;2022-09-09T02:56:30;60.07;;;17.27;;
840;SDS011;406;48.566;13.450;2022-09-09T02:58:59;165.97;;;24.67;;
840;SDS011;406;48.566;13.450;2022-09-09T03:01:25;56.53;;;14.97;;
840;SDS011;406;48.566;13.450;2022-09-09T03:03:51;130.87;;;21.30;;
840;SDS011;406;48.566;13.450;2022-09-09T03:06:17;44.60;;;16.23;;
840;SDS011;406;48.566;13.450;2022-09-09T03:08:46;37.80;;;14.97;;
840;SDS011;406;48.566;13.450;2022-09-09T03:11:12;80.43;;;16.23;;
840;SDS011;406;48.566;13.450;2022-09-09T03:13:40;63.17;;;15.80;;
840;SDS011;406;48.566;13.450;2022-09-09T03:16:06;77.13;;;16.90;;
840;SDS011;406;48.566;13.450;2022-09-09T03:18:37;44.30;;;14.80;;
840;SDS011;406;48.566;13.450;2022-09-09T03:21:04;111.83;;;20.27;;
840;SDS011;406;48.566;13.450;2022-09-09T03:23:29;67.30;;;18.30;;
840;SDS011;406;48.566;13.450;2022-09-09T03:25:57;46.20;;;15.63;;
840;SDS011;406;48.566;13.450;2022-09-09T03:28:32;64.30;;;15.60;;
840;SDS011;406;48.566;13.450;2022-09-09T03:31:00;67.47;;;18.50;;
840;SDS011;406;48.566;13.450;2022-09-09T03:33:28;78.83;;;18.33;;
840;SDS011;406;48.566;13.450;2022-09-09T03:35:55;37.07;;;13.87;;
840;SDS011;406;48.566;13.450;2022-09-09T03:38:25;39.17;;;14.33;;
840;SDS011;406;48.566;13.450;2022-09-09T03:40:51;35.07;;;14.90;;
840;SDS011;406;48.566;13.450;2022-09-09T03:43:21;36.03;;;13.30;;
840;SDS011;406;48.566;13.450;2022-09-09T03:45:47;30.70;;;10.63;;
840;SDS011;406;48.566;13.450;2022-09-09T03:48:14;41.40;;;13.80;;
840;SDS011;406;48.566;13.450;2022-09-09T03:50:47;37.97;;;13.27;;
840;SDS011;406;48.566;13.450;2022-09-09T03:53:14;65.67;;;13.67;;
840;SDS011;406;48.566;13.450;2022-09-09T03:55:43;58.37;;;15.97;;
840;SDS011;406;48.566;13.450;2022-09-09T03:58:11;31.30;;;11.03;;
840;SDS011;406;48.566;13.450;2022-09-09T04:00:37;104.10;;;14.67;;
840;SDS011;406;48.566;13.450;2022-09-09T04:03:08;81.67;;;16.23;;
840;SDS011;406;48.566;13.450;2022-09-09T04:05:34;48.03;;;12.20;;
840;SDS011;406;48.566;13.450;2022-09-09T04:07:59;27.73;;;10.30;;
840;SDS011;406;48.566;13.450;2022-09-09T04:10:25;71.60;;;14.50;;
840;SDS011;406;48.566;13.450;2022-09-09T04:12:53;75.00;;;15.50;;
840;SDS011;406;48.566;13.450;2022-09-09T04:15:20;33.97;;;12.93;;
840;SDS011;406;48.566;13.450;2022-09-09T04:17:46;42.07;;;12.83;;
840;SDS011;406;48.566;13.450;2022-09-09T04:20:12;30.03;;;11.70;;
840;SDS011;406;48.566;13.450;2022-09-09T04:22:37;32.27;;;12.60;;
840;SDS011;406;48.566;13.450;2022-09-09T04:25:05;42.30;;;13.57;;
840;SDS011;406;48.566;13.450;2022-09-09T04:27:31;29.53;;;12.03;;
840;SDS011;406;48.566;13.450;2022-09-09T04:29:57;33.27;;;11.60;;
840;SDS011;406;48.566;13.450;2022-09-09T04:32:24;71.43;;;12.87;;
840;SDS011;406;48.566;13.450;2022-09-09T04:34:52;36.43;;;12.73;;
840;SDS011;406;48.566;13.450;2022-09-09T04:37:18;41.03;;;13.17;;
840;SDS011;406;48.566;13.450;2022-09-09T04:39:44;35.17;;;12.90;;
840;SDS011;406;48.566;13.450;2022-09-09T04:42:10;28.00;;;10.80;;
840;SDS011;406;48.566;13.450;2022-09-09T04:44:38;32.57;;;12.50;;
840;SDS011;406;48.566;13.450;2022-09-09T04:47:05;33.07;;;14.20;;
840;SDS011;406;48.566;13.450;2022-09-09T04:49:31;30.23;;;15.23;;
840;SDS011;406;48.566;13.450;2022-09-09T04:51:58;21.77;;;12.20;;
840;SDS011;406;48.566;13.450;2022-09-09T04:54:23;36.23;;;12.50;;
840;SDS011;406;48.566;13.450;2022-09-09T04:56:50;18.00;;;11.70;;
840;SDS011;406;48.566;13.450;2022-09-09T04:59:16;18.27;;;11.17;;
840;SDS011;406;48.566;13.450;2022-09-09T05:01:45;23.17;;;12.97;;
840;SDS011;406;48.566;13.450;2022-09-09T05:04:11;16.50;;;11.17;;
840;SDS011;406;48.566;13.450;2022-09-09T05:06:36;22.53;;;12.40;;
840;SDS011;406;48.566;13.450;2022-09-09T05:09:03;17.90;;;12.33;;
840;SDS011;406;48.566;13.450;2022-09-09T05:11:30;17.87;;;12.33;;
840;SDS011;406;48.566;13.450;2022-09-09T05:14:02;19.57;;;12.83;;
840;SDS011;406;48.566;13.450;2022-09-09T05:16:29;15.70;;;11.00;;
840;SDS011;406;48.566;13.450;2022-09-09T05:18:55;17.27;;;12.17;;
840;SDS011;406;48.566;13.450;2022-09-09T05:21:21;11.37;;;9.10;;
840;SDS011;406;48.566;13.450;2022-09-09T05:23:48;12.63;;;9.90;;
840;SDS011;406;48.566;13.450;2022-09-09T05:26:14;15.70;;;10.33;;
840;SDS011;406;48.566;13.450;2022-09-09T05:28:41;15.00;;;9.77;;
840;SDS011;406;48.566;13.450;2022-09-09T05:31:08;13.60;;;10.57;;
840;SDS011;406;48.566;13.450;2022-09-09T05:33:36;13.97;;;9.50;;
840;SDS011;406;48.566;13.450;2022-09-09T05:36:04;11.63;;;9.30;;
840;SDS011;406;48.566;13.450;2022-09-09T05:38:31;14.67;;;8.83;;
840;SDS011;406;48.566;13.450;2022-09-09T05:41:00;12.30;;;9.40;;
840;SDS011;406;48.566;13.450;2022-09-09T05:43:27;12.33;;;8.53;;
840;SDS011;406;48.566;13.450;2022-09-09T05:46:08;13.00;;;9.43;;
840;SDS011;406;48.566;13.450;2022-09-09T05:48:35;17.23;;;9.67;;
840;SDS011;406;48.566;13.450;2022-09-09T05:51:22;12.30;;;8.70;;
840;SDS011;406;48.566;13.450;2022-09-09T05:53:50;13.90;;;10.80;;
840;SDS011;406;48.566;13.450;2022-09-09T05:56:28;10.60;;;8.47;;
840;SDS011;406;48.566;13.450;2022-09-09T05:58:56;15.70;;;8.97;;
840;SDS011;406;48.566;13.450;2022-09-09T06:03:47;13.13;;;8.80;;
840;SDS011;406;48.566;13.450;2022-09-09T06:06:15;12.80;;;9.27;;
840;SDS011;406;48.566;13.450;2022-09-09T06:08:43;11.97;;;10.47;;
840;SDS011;406;48.566;13.450;2022-09-09T06:11:10;12.13;;;9.80;;
840;SDS011;406;48.566;13.450;2022-09-09T06:13:43;12.07;;;8.00;;
840;SDS011;406;48.566;13.450;2022-09-09T06:16:12;13.93;;;10.07;;
840;SDS011;406;48.566;13.450;2022-09-09T06:18:41;13.13;;;9.30;;
840;SDS011;406;48.566;13.450;2022-09-09T06:21:08;10.90;;;9.80;;
840;SDS011;406;48.566;13.450;2022-09-09T06:23:37;13.80;;;10.20;;
840;SDS011;406;48.566;13.450;2022-09-09T06:26:15;12.00;;;9.40;;
840;SDS011;406;48.566;13.450;2022-09-09T06:28:45;13.97;;;9.67;;
840;SDS011;406;48.566;13.450;2022-09-09T06:31:13;12.87;;;9.50;;
840;SDS011;406;48.566;13.450;2022-09-09T06:33:42;14.57;;;9.73;;
840;SDS011;406;48.566;13.450;2022-09-09T06:36:10;13.03;;;10.07;;
840;SDS011;406;48.566;13.450;2022-09-09T06:38:41;13.67;;;9.37;;
840;SDS011;406;48.566;13.450;2022-09-09T06:41:08;12.10;;;8.60;;
840;SDS011;406;48.566;13.450;2022-09-09T06:43:34;16.30;;;9.67;;
840;SDS011;406;48.566;13.450;2022-09-09T06:46:01;13.60;;;8.60;;
840;SDS011;406;48.566;13.450;2022-09-09T06:48:28;12.40;;;9.53;;
840;SDS011;406;48.566;13.450;2022-09-09T06:51:01;12.47;;;9.23;;
840;SDS011;406;48.566;13.450;2022-09-09T06:53:28;13.17;;;9.83;;
840;SDS011;406;48.566;13.450;2022-09-09T06:55:54;12.40;;;9.13;;
840;SDS011;406;48.566;13.450;2022-09-09T06:58:20;13.50;;;8.90;;
840;SDS011;406;48.566;13.450;2022-09-09T07:00:47;10.33;;;8.40;;
840;SDS011;406;48.566;13.450;2022-09-09T07:03:13;14.13;;;9.80;;
840;SDS011;406;48.566;13.450;2022-09-09T07:05:39;11.93;;;8.80;;
840;SDS011;406;48.566;13.450;2022-09-09T07:08:04;11.90;;;8.53;;
840;SDS011;406;48.566;13.450;2022-09-09T07:10:30;12.87;;;9.00;;
840;SDS011;406;48.566;13.450;2022-09-09T07:12:56;12.50;;;8.80;;
840;SDS011;406;48.566;13.450;2022-09-09T07:15:23;11.30;;;9.50;;
840;SDS011;406;48.566;13.450;2022-09-09T07:17:50;15.10;;;8.37;;
840;SDS011;406;48.566;13.450;2022-09-09T07:20:15;12.47;;;7.63;;
840;SDS011;406;48.566;13.450;2022-09-09T07:22:41;11.77;;;8.80;;
840;SDS011;406;48.566;13.450;2022-09-09T07:25:08;13.67;;;8.93;;
840;SDS011;406;48.566;13.450;2022-09-09T07:27:35;11.63;;;8.67;;
840;SDS011;406;48.566;13.450;2022-09-09T07:30:00;11.47;;;8.10;;
840;SDS011;406;48.566;13.450;2022-09-09T07:32:27;8.60;;;7.70;;
840;SDS011;406;48.566;13.450;2022-09-09T07:34:55;9.37;;;7.70;;
840;SDS011;406;48.566;13.450;2022-09-09T07:37:21;9.33;;;8.33;;
840;SDS011;406;48.566;13.450;2022-09-09T07:39:47;10.33;;;8.60;;
840;SDS011;406;48.566;13.450;2022-09-09T07:42:13;9.10;;;7.83;;
840;SDS011;406;48.566;13.450;2022-09-09T07:44:40;14.90;;;9.50;;
840;SDS011;406;48.566;13.450;2022-09-09T07:47:09;10.00;;;7.70;;
840;SDS011;406;48.566;13.450;2022-09-09T07:49:42;12.03;;;8.10;;
840;SDS011;406;48.566;13.450;2022-09-09T07:52:08;9.33;;;6.50;;
840;SDS011;406;48.566;13.450;2022-09-09T07:54:35;8.50;;;5.87;;
840;SDS011;406;48.566;13.450;2022-09-09T07:57:03;8.07;;;6.40;;
840;SDS011;406;48.566;13.450;2022-09-09T07:59:30;11.03;;;7.20;;
840;SDS011;406;48.566;13.450;2022-09-09T08:01:56;7.00;;;6.03;;
840;SDS011;406;48.566;13.450;2022-09-09T08:04:26;6.77;;;6.17;;
840;SDS011;406;48.566;13.450;2022-09-09T08:06:55;8.77;;;6.33;;
840;SDS011;406;48.566;13.450;2022-09-09T08:09:23;9.47;;;7.47;;
840;SDS011;406;48.566;13.450;2022-09-09T08:11:52;7.93;;;6.60;;
840;SDS011;406;48.566;13.450;2022-09-09T08:14:18;9.80;;;6.57;;
840;SDS011;406;48.566;13.450;2022-09-09T08:16:45;8.87;;;6.70;;
840;SDS011;406;48.566;13.450;2022-09-09T08:19:15;9.63;;;7.40;;
840;SDS011;406;48.566;13.450;2022-09-09T08:21:41;7.90;;;6.03;;
840;SDS011;406;48.566;13.450;2022-09-09T08:24:09;10.90;;;6.60;;
840;SDS011;406;48.566;13.450;2022-09-09T08:26:37;8.07;;;5.60;;
840;SDS011;406;48.566;13.450;2022-09-09T08:29:05;7.50;;;6.00;;
840;SDS011;406;48.566;13.450;2022-09-09T08:31:39;8.07;;;5.40;;
840;SDS011;406;48.566;13.450;2022-09-09T08:34:26;9.00;;;6.13;;
840;SDS011;406;48.566;13.450;2022-09-09T08:36:54;8.60;;;5.80;;
840;SDS011;406;48.566;13.450;2022-09-09T08:39:24;7.83;;;6.40;;
840;SDS011;406;48.566;13.450;2022-09-09T08:41:59;7.97;;;5.90;;
840;SDS011;406;48.566;13.450;2022-09-09T08:47:35;8.73;;;6.50;;
840;SDS011;406;48.566;13.450;2022-09-09T08:50:25;7.60;;;5.87;;
840;SDS011;406;48.566;13.450;2022-09-09T08:53:09;8.00;;;5.20;;
840;SDS011;406;48.566;13.450;2022-09-09T08:55:49;6.60;;;5.10;;
840;SDS011;406;48.566;13.450;2022-09-09T08:58:21;8.57;;;5.37;;
840;SDS011;406;48.566;13.450;2022-09-09T09:03:36;6.20;;;5.20;;
840;SDS011;406;48.566;13.450;2022-09-09T09:06:13;7.53;;;5.93;;
840;SDS011;406;48.566;13.450;2022-09-09T09:08:51;8.00;;;5.00;;
840;SDS011;406;48.566;13.450;2022-09-09T09:11:23;6.53;;;5.07;;
840;SDS011;406;48.566;13.450;2022-09-09T09:16:26;9.27;;;6.10;;
840;SDS011;406;48.566;13.450;2022-09-09T09:18:54;6.13;;;5.13;;
840;SDS011;406;48.566;13.450;2022-09-09T09:21:28;6.53;;;5.07;;
840;SDS011;406;48.566;13.450;2022-09-09T09:24:20;11.63;;;5.50;;
840;SDS011;406;48.566;13.450;2022-09-09T09:26:48;7.47;;;5.47;;
840;SDS011;406;48.566;13.450;2022-09-09T09:29:17;5.63;;;4.80;;
840;SDS011;406;48.566;13.450;2022-09-09T09:31:45;9.37;;;6.00;;
840;SDS011;406;48.566;13.450;2022-09-09T09:34:14;7.77;;;5.23;;
840;SDS011;406;48.566;13.450;2022-09-09T09:36:41;6.33;;;5.07;;
840;SDS011;406;48.566;13.450;2022-09-09T09:39:22;7.27;;;5.33;;
840;SDS011;406;48.566;13.450;2022-09-09T09:41:52;6.03;;;4.30;;
840;SDS011;406;48.566;13.450;2022-09-09T09:44:26;6.80;;;5.20;;
840;SDS011;406;48.566;13.450;2022-09-09T09:49:57;6.10;;;4.40;;
840;SDS011;406;48.566;13.450;2022-09-09T09:52:28;6.30;;;4.83;;
840;SDS011;406;48.566;13.450;2022-09-09T09:54:56;4.60;;;3.97;;
840;SDS011;406;48.566;13.450;2022-09-09T09:57:31;4.30;;;3.60;;
840;SDS011;406;48.566;13.450;2022-09-09T10:00:00;6.30;;;4.23;;
840;SDS011;406;48.566;13.450;2022-09-09T10:02:40;4.63;;;3.90;;
840;SDS011;406;48.566;13.450;2022-09-09T10:05:14;4.73;;;3.73;;
840;SDS011;406;48.566;13.450;2022-09-09T10:07:45;6.23;;;3.70;;
840;SDS011;406;48.566;13.450;2022-09-09T10:10:35;5.30;;;3.60;;
840;SDS011;406;48.566;13.450;2022-09-09T10:13:09;4.00;;;2.90;;
840;SDS011;406;48.566;13.450;2022-09-09T10:15:53;5.83;;;3.40;;
840;SDS011;406;48.566;13.450;2022-09-09T10:18:46;3.50;;;2.20;;
840;SDS011;406;48.566;13.450;2022-09-09T10:24:44;3.10;;;2.80;;
840;SDS011;406;48.566;13.450;2022-09-09T10:27:15;4.20;;;3.03;;
840;SDS011;406;48.566;13.450;2022-09-09T10:32:38;4.53;;;3.33;;
840;SDS011;406;48.566;13.450;2022-09-09T10:35:14;5.10;;;4.17;;
840;SDS011;406;48.566;13.450;2022-09-09T10:46:15;3.73;;;2.33;;
840;SDS011;406;48.566;13.450;2022-09-09T10:51:33;5.40;;;3.60;;
840;SDS011;406;48.566;13.450;2022-09-09T10:54:06;5.30;;;2.90;;
840;SDS011;406;48.566;13.450;2022-09-09T10:56:38;4.63;;;2.77;;
840;SDS011;406;48.566;13.450;2022-09-09T10:59:07;4.47;;;3.00;;
840;SDS011;406;48.566;13.450;2022-09-09T11:04:22;4.77;;;3.40;;
840;SDS011;406;48.566;13.450;2022-09-09T11:06:52;5.80;;;3.40;;
840;SDS011;406;48.566;13.450;2022-09-09T11:09:27;5.53;;;3.23;;
840;SDS011;406;48.566;13.450;2022-09-09T11:11:56;6.63;;;3.40;;
840;SDS011;406;48.566;13.450;2022-09-09T11:14:31;5.77;;;3.70;;
840;SDS011;406;48.566;13.450;2022-09-09T11:19:36;3.97;;;3.50;;
840;SDS011;406;48.566;13.450;2022-09-09T11:22:23;5.40;;;3.60;;
840;SDS011;406;48.566;13.450;2022-09-09T11:24:57;4.40;;;3.53;;
840;SDS011;406;48.566;13.450;2022-09-09T11:27:32;9.57;;;6.20;;
840;SDS011;406;48.566;13.450;2022-09-09T11:30:04;6.80;;;3.80;;
840;SDS011;406;48.566;13.450;2022-09-09T11:35:32;6.77;;;4.03;;
840;SDS011;406;48.566;13.450;2022-09-09T11:38:08;6.50;;;3.70;;
840;SDS011;406;48.566;13.450;2022-09-09T11:40:53;7.37;;;4.43;;
840;SDS011;406;48.566;13.450;2022-09-09T11:43:24;5.07;;;3.53;;
840;SDS011;406;48.566;13.450;2022-09-09T11:45:53;7.13;;;4.40;;
840;SDS011;406;48.566;13.450;2022-09-09T11:48:28;12.23;;;5.00;;
840;SDS011;406;48.566;13.450;2022-09-09T11:50:59;5.60;;;4.20;;
840;SDS011;406;48.566;13.450;2022-09-09T11:53:33;6.47;;;5.03;;
840;SDS011;406;48.566;13.450;2022-09-09T11:56:12;6.40;;;4.67;;
840;SDS011;406;48.566;13.450;2022-09-09T11:58:41;6.20;;;4.60;;
840;SDS011;406;48.566;13.450;2022-09-09T12:06:52;7.87;;;5.73;;
840;SDS011;406;48.566;13.450;2022-09-09T12:09:31;7.40;;;4.87;;
840;SDS011;406;48.566;13.450;2022-09-09T12:12:06;5.63;;;4.77;;
840;SDS011;406;48.566;13.450;2022-09-09T12:19:39;6.57;;;5.10;;
840;SDS011;406;48.566;13.450;2022-09-09T12:22:24;7.70;;;5.00;;
840;SDS011;406;48.566;13.450;2022-09-09T12:27:44;10.53;;;6.00;;
840;SDS011;406;48.566;13.450;2022-09-09T12:30:16;8.07;;;5.87;;
840;SDS011;406;48.566;13.450;2022-09-09T12:32:42;8.90;;;6.00;;
840;SDS011;406;48.566;13.450;2022-09-09T12:37:46;5.20;;;4.60;;
840;SDS011;406;48.566;13.450;2022-09-09T12:40:20;8.43;;;5.03;;
840;SDS011;406;48.566;13.450;2022-09-09T12:42:47;6.03;;;4.23;;
840;SDS011;406;48.566;13.450;2022-09-09T12:45:17;7.73;;;5.50;;
840;SDS011;406;48.566;13.450;2022-09-09T12:47:46;5.97;;;4.37;;
840;SDS011;406;48.566;13.450;2022-09-09T12:50:22;6.63;;;3.80;;
840;SDS011;406;48.566;13.450;2022-09-09T12:52:56;7.03;;;5.30;;
840;SDS011;406;48.566;13.450;2022-09-09T12:55:24;5.00;;;3.73;;
840;SDS011;406;48.566;13.450;2022-09-09T12:57:55;4.93;;;3.63;;
840;SDS011;406;48.566;13.450;2022-09-09T13:00:22;5.90;;;5.20;;
840;SDS011;406;48.566;13.450;2022-09-09T13:02:50;6.17;;;3.63;;
840;SDS011;406;48.566;13.450;2022-09-09T13:07:45;6.63;;;3.43;;
840;SDS011;406;48.566;13.450;2022-09-09T13:10:12;4.33;;;3.53;;
840;SDS011;406;48.566;13.450;2022-09-09T13:12:39;5.10;;;3.60;;
840;SDS011;406;48.566;13.450;2022-09-09T13:15:10;4.20;;;3.50;;
840;SDS011;406;48.566;13.450;2022-09-09T13:17:39;6.50;;;3.13;;
840;SDS011;406;48.566;13.450;2022-09-09T13:20:06;4.70;;;4.23;;
840;SDS011;406;48.566;13.450;2022-09-09T13:22:35;4.33;;;3.00;;
840;SDS011;406;48.566;13.450;2022-09-09T13:25:24;4.00;;;3.47;;
840;SDS011;406;48.566;13.450;2022-09-09T13:30:25;3.83;;;3.40;;
840;SDS011;406;48.566;13.450;2022-09-09T13:33:19;4.00;;;3.03;;
840;SDS011;406;48.566;13.450;2022-09-09T13:38:14;4.53;;;3.30;;
840;SDS011;406;48.566;13.450;2022-09-09T13:40:39;3.20;;;2.83;;
840;SDS011;406;48.566;13.450;2022-09-09T13:43:05;3.80;;;2.63;;
840;SDS011;406;48.566;13.450;2022-09-09T13:45:51;3.30;;;2.83;;
840;SDS011;406;48.566;13.450;2022-09-09T13:48:19;5.53;;;3.57;;
840;SDS011;406;48.566;13.450;2022-09-09T13:50:53;3.20;;;2.90;;
840;SDS011;406;48.566;13.450;2022-09-09T13:53:19;5.47;;;2.97;;
840;SDS011;406;48.566;13.450;2022-09-09T13:55:45;3.93;;;2.50;;
840;SDS011;406;48.566;13.450;2022-09-09T13:58:14;3.30;;;2.97;;
840;SDS011;406;48.566;13.450;2022-09-09T14:00:41;3.50;;;2.20;;
840;SDS011;406;48.566;13.450;2022-09-09T14:03:06;4.00;;;2.37;;
840;SDS011;406;48.566;13.450;2022-09-09T14:05:32;3.57;;;2.23;;
840;SDS011;406;48.566;13.450;2022-09-09T14:07:58;2.87;;;2.57;;
840;SDS011;406;48.566;13.450;2022-09-09T14:10:25;2.83;;;2.03;;
840;SDS011;406;48.566;13.450;2022-09-09T14:12:51;5.50;;;2.63;;
840;SDS011;406;48.566;13.450;2022-09-09T14:15:17;3.70;;;2.20;;
840;SDS011;406;48.566;13.450;2022-09-09T14:17:44;2.80;;;2.10;;
840;SDS011;406;48.566;13.450;2022-09-09T14:20:09;3.87;;;2.80;;
840;SDS011;406;48.566;13.450;2022-09-09T14:22:36;2.70;;;2.03;;
840;SDS011;406;48.566;13.450;2022-09-09T14:25:03;3.10;;;2.27;;
840;SDS011;406;48.566;13.450;2022-09-09T14:27:29;2.97;;;2.00;;
840;SDS011;406;48.566;13.450;2022-09-09T14:29:55;3.60;;;2.60;;
840;SDS011;406;48.566;13.450;2022-09-09T14:32:20;4.87;;;2.67;;
840;SDS011;406;48.566;13.450;2022-09-09T14:34:46;2.93;;;2.70;;
840;SDS011;406;48.566;13.450;2022-09-09T14:37:15;3.47;;;3.03;;
840;SDS011;406;48.566;13.450;2022-09-09T14:39:42;3.80;;;3.17;;
840;SDS011;406;48.566;13.450;2022-09-09T14:42:09;4.50;;;3.10;;
840;SDS011;406;48.566;13.450;2022-09-09T14:44:36;4.33;;;3.50;;
840;SDS011;406;48.566;13.450;2022-09-09T14:47:04;4.87;;;3.10;;
840;SDS011;406;48.566;13.450;2022-09-09T14:49:30;5.10;;;3.30;;
840;SDS011;406;48.566;13.450;2022-09-09T14:51:56;3.20;;;2.90;;
840;SDS011;406;48.566;13.450;2022-09-09T14:54:22;3.83;;;3.00;;
840;SDS011;406;48.566;13.450;2022-09-09T14:56:48;3.47;;;3.00;;
840;SDS011;406;48.566;13.450;2022-09-09T14:59:13;4.57;;;2.63;;
840;SDS011;406;48.566;13.450;2022-09-09T15:01:39;4.07;;;2.90;;
840;SDS011;406;48.566;13.450;2022-09-09T15:04:05;3.90;;;2.70;;
840;SDS011;406;48.566;13.450;2022-09-09T15:06:31;3.00;;;2.67;;
840;SDS011;406;48.566;13.450;2022-09-09T15:08:59;5.10;;;3.10;;
840;SDS011;406;48.566;13.450;2022-09-09T15:11:29;3.20;;;1.93;;
840;SDS011;406;48.566;13.450;2022-09-09T15:13:55;1.90;;;1.70;;
840;SDS011;406;48.566;13.450;2022-09-09T15:16:23;4.87;;;2.60;;
840;SDS011;406;48.566;13.450;2022-09-09T15:18:51;3.40;;;2.30;;
840;SDS011;406;48.566;13.450;2022-09-09T15:21:19;2.67;;;2.10;;
840;SDS011;406;48.566;13.450;2022-09-09T15:23:46;5.50;;;2.37;;
840;SDS011;406;48.566;13.450;2022-09-09T15:26:13;4.23;;;2.87;;
840;SDS011;406;48.566;13.450;2022-09-09T15:28:42;3.03;;;2.73;;
840;SDS011;406;48.566;13.450;2022-09-09T15:31:09;3.33;;;2.70;;
840;SDS011;406;48.566;13.450;2022-09-09T15:33:37;4.70;;;3.10;;
840;SDS011;406;48.566;13.450;2022-09-09T15:36:12;6.43;;;3.10;;
840;SDS011;406;48.566;13.450;2022-09-09T15:38:40;6.47;;;3.57;;
840;SDS011;406;48.566;13.450;2022-09-09T15:41:06;4.40;;;2.87;;
840;SDS011;406;48.566;13.450;2022-09-09T15:43:31;3.77;;;3.37;;
840;SDS011;406;48.566;13.450;2022-09-09T15:45:58;4.00;;;3.10;;
840;SDS011;406;48.566;13.450;2022-09-09T15:48:31;3.23;;;2.77;;
840;SDS011;406;48.566;13.450;2022-09-09T15:51:02;3.50;;;3.10;;
840;SDS011;406;48.566;13.450;2022-09-09T15:53:29;5.10;;;2.60;;
840;SDS011;406;48.566;13.450;2022-09-09T15:55:55;6.23;;;4.30;;
840;SDS011;406;48.566;13.450;2022-09-09T15:58:20;3.60;;;2.97;;
840;SDS011;406;48.566;13.450;2022-09-09T16:00:46;4.63;;;3.93;;
840;SDS011;406;48.566;13.450;2022-09-09T16:03:11;4.97;;;3.60;;
840;SDS011;406;48.566;13.450;2022-09-09T16:05:37;5.07;;;4.33;;
840;SDS011;406;48.566;13.450;2022-09-09T16:08:03;5.60;;;5.10;;
840;SDS011;406;48.566;13.450;2022-09-09T16:10:29;8.07;;;4.67;;
840;SDS011;406;48.566;13.450;2022-09-09T16:12:56;8.50;;;6.03;;
840;SDS011;406;48.566;13.450;2022-09-09T16:15:21;5.83;;;5.17;;
840;SDS011;406;48.566;13.450;2022-09-09T16:17:48;6.93;;;5.77;;
840;SDS011;406;48.566;13.450;2022-09-09T16:20:14;5.63;;;4.77;;
840;SDS011;406;48.566;13.450;2022-09-09T16:22:40;6.07;;;5.47;;
840;SDS011;406;48.566;13.450;2022-09-09T16:25:05;5.27;;;4.77;;
840;SDS011;406;48.566;13.450;2022-09-09T16:27:31;5.50;;;4.90;;
840;SDS011;406;48.566;13.450;2022-09-09T16:29:57;5.87;;;4.87;;
840;SDS011;406;48.566;13.450;2022-09-09T16:32:22;8.00;;;4.70;;
840;SDS011;406;48.566;13.450;2022-09-09T16:34:48;8.47;;;5.33;;
840;SDS011;406;48.566;13.450;2022-09-09T16:37:13;6.03;;;4.40;;
840;SDS011;406;48.566;13.450;2022-09-09T16:39:39;5.10;;;4.60;;
840;SDS011;406;48.566;13.450;2022-09-09T16:42:04;5.57;;;4.70;;
840;SDS011;406;48.566;13.450;2022-09-09T16:44:30;6.20;;;4.80;;
840;SDS011;406;48.566;13.450;2022-09-09T16:46:55;7.07;;;4.20;;
840;SDS011;406;48.566;13.450;2022-09-09T16:49:21;5.20;;;3.67;;
840;SDS011;406;48.566;13.450;2022-09-09T16:51:47;6.07;;;3.90;;
840;SDS011;406;48.566;13.450;2022-09-09T16:54:15;4.90;;;4.40;;
840;SDS011;406;48.566;13.450;2022-09-09T16:56:42;6.27;;;4.10;;
840;SDS011;406;48.566;13.450;2022-09-09T16:59:12;7.00;;;4.13;;
840;SDS011;406;48.566;13.450;2022-09-09T17:01:40;4.83;;;4.30;;
840;SDS011;406;48.566;13.450;2022-09-09T17:04:07;7.10;;;4.10;;
840;SDS011;406;48.566;13.450;2022-09-09T17:06:35;5.93;;;4.10;;
840;SDS011;406;48.566;13.450;2022-09-09T17:09:08;5.07;;;4.50;;
840;SDS011;406;48.566;13.450;2022-09-09T17:11:35;6.03;;;4.80;;
840;SDS011;406;48.566;13.450;2022-09-09T17:14:01;5.20;;;4.60;;
840;SDS011;406;48.566;13.450;2022-09-09T17:16:29;15.37;;;5.50;;
840;SDS011;406;48.566;13.450;2022-09-09T17:18:56;4.77;;;4.27;;